sensor_id;sensor_type;location;lat;lon;timestamp;P1;durP1;ratioP1;P2;durP2;ratioP2
55025;SDS011;40925;45.666;18.994;2022-12-08T00:00:39;77.00;;;41.85;;
55025;SDS011;40925;45.666;18.994;2022-12-08T00:03:04;75.35;;;42.60;;
55025;SDS011;40925;45.666;18.994;2022-12-08T00:05:30;79.82;;;42.33;;
55025;SDS011;40925;45.666;18.994;2022-12-08T00:08:14;77.47;;;41.72;;
55025;SDS011;40925;45.666;18.994;2022-12-08T00:10:58;71.93;;;41.60;;
55025;SDS011;40925;45.666;18.994;2022-12-08T00:13:24;71.53;;;41.58;;
55025;SDS011;40925;45.666;18.994;2022-12-08T00:15:50;75.72;;;42.75;;
55025;SDS011;40925;45.666;18.994;2022-12-08T00:18:15;74.55;;;41.53;;
55025;SDS011;40925;45.666;18.994;2022-12-08T00:20:41;77.95;;;42.67;;
55025;SDS011;40925;45.666;18.994;2022-12-08T00:23:07;71.50;;;40.00;;
55025;SDS011;40925;45.666;18.994;2022-12-08T00:25:35;72.40;;;41.67;;
55025;SDS011;40925;45.666;18.994;2022-12-08T00:28:01;81.70;;;43.10;;
55025;SDS011;40925;45.666;18.994;2022-12-08T00:30:27;77.05;;;41.85;;
55025;SDS011;40925;45.666;18.994;2022-12-08T00:32:52;77.28;;;41.42;;
55025;SDS011;40925;45.666;18.994;2022-12-08T00:35:18;75.35;;;41.75;;
55025;SDS011;40925;45.666;18.994;2022-12-08T00:37:44;78.80;;;42.63;;
55025;SDS011;40925;45.666;18.994;2022-12-08T00:40:09;77.60;;;42.08;;
55025;SDS011;40925;45.666;18.994;2022-12-08T00:42:35;72.60;;;39.80;;
55025;SDS011;40925;45.666;18.994;2022-12-08T00:45:01;75.25;;;41.22;;
55025;SDS011;40925;45.666;18.994;2022-12-08T00:47:26;71.60;;;38.92;;
55025;SDS011;40925;45.666;18.994;2022-12-08T00:49:52;70.57;;;38.95;;
55025;SDS011;40925;45.666;18.994;2022-12-08T00:52:18;70.07;;;38.97;;
55025;SDS011;40925;45.666;18.994;2022-12-08T00:54:43;72.63;;;39.05;;
55025;SDS011;40925;45.666;18.994;2022-12-08T00:57:09;67.28;;;37.97;;
55025;SDS011;40925;45.666;18.994;2022-12-08T00:59:35;64.47;;;37.20;;
55025;SDS011;40925;45.666;18.994;2022-12-08T01:02:01;68.63;;;37.25;;
55025;SDS011;40925;45.666;18.994;2022-12-08T01:04:27;69.10;;;37.95;;
55025;SDS011;40925;45.666;18.994;2022-12-08T01:06:52;65.95;;;37.42;;
55025;SDS011;40925;45.666;18.994;2022-12-08T01:09:18;66.38;;;36.88;;
55025;SDS011;40925;45.666;18.994;2022-12-08T01:11:44;69.53;;;37.63;;
55025;SDS011;40925;45.666;18.994;2022-12-08T01:14:10;67.93;;;37.60;;
55025;SDS011;40925;45.666;18.994;2022-12-08T01:16:36;74.13;;;38.35;;
55025;SDS011;40925;45.666;18.994;2022-12-08T01:19:02;62.15;;;35.67;;
55025;SDS011;40925;45.666;18.994;2022-12-08T01:21:28;65.10;;;34.97;;
55025;SDS011;40925;45.666;18.994;2022-12-08T01:23:54;69.05;;;37.63;;
55025;SDS011;40925;45.666;18.994;2022-12-08T01:26:20;65.50;;;35.92;;
55025;SDS011;40925;45.666;18.994;2022-12-08T01:28:46;70.28;;;37.67;;
55025;SDS011;40925;45.666;18.994;2022-12-08T01:31:16;67.75;;;35.78;;
55025;SDS011;40925;45.666;18.994;2022-12-08T01:33:43;68.47;;;36.78;;
55025;SDS011;40925;45.666;18.994;2022-12-08T01:36:42;66.07;;;36.17;;
55025;SDS011;40925;45.666;18.994;2022-12-08T01:39:03;71.93;;;37.78;;
55025;SDS011;40925;45.666;18.994;2022-12-08T01:41:33;68.50;;;38.22;;
55025;SDS011;40925;45.666;18.994;2022-12-08T01:44:01;76.32;;;41.22;;
55025;SDS011;40925;45.666;18.994;2022-12-08T01:46:30;79.95;;;40.75;;
55025;SDS011;40925;45.666;18.994;2022-12-08T01:49:08;82.47;;;43.30;;
55025;SDS011;40925;45.666;18.994;2022-12-08T01:51:54;79.65;;;43.05;;
55025;SDS011;40925;45.666;18.994;2022-12-08T01:54:42;79.00;;;42.78;;
55025;SDS011;40925;45.666;18.994;2022-12-08T01:59:46;76.25;;;40.50;;
55025;SDS011;40925;45.666;18.994;2022-12-08T02:02:17;69.07;;;38.95;;
55025;SDS011;40925;45.666;18.994;2022-12-08T02:04:42;67.57;;;37.95;;
55025;SDS011;40925;45.666;18.994;2022-12-08T02:07:08;69.63;;;38.25;;
55025;SDS011;40925;45.666;18.994;2022-12-08T02:09:36;69.80;;;37.17;;
55025;SDS011;40925;45.666;18.994;2022-12-08T02:12:03;72.20;;;38.58;;
55025;SDS011;40925;45.666;18.994;2022-12-08T02:14:30;68.82;;;38.38;;
55025;SDS011;40925;45.666;18.994;2022-12-08T02:17:05;70.00;;;37.97;;
55025;SDS011;40925;45.666;18.994;2022-12-08T02:39:02;68.55;;;38.75;;
55025;SDS011;40925;45.666;18.994;2022-12-08T02:44:11;70.65;;;37.47;;
55025;SDS011;40925;45.666;18.994;2022-12-08T02:47:24;68.13;;;36.28;;
55025;SDS011;40925;45.666;18.994;2022-12-08T02:49:36;67.50;;;37.38;;
55025;SDS011;40925;45.666;18.994;2022-12-08T02:52:06;64.47;;;36.67;;
55025;SDS011;40925;45.666;18.994;2022-12-08T02:54:54;65.03;;;35.60;;
55025;SDS011;40925;45.666;18.994;2022-12-08T03:00:07;67.97;;;36.63;;
55025;SDS011;40925;45.666;18.994;2022-12-08T03:07:48;64.63;;;35.67;;
55025;SDS011;40925;45.666;18.994;2022-12-08T03:10:18;63.90;;;36.40;;
55025;SDS011;40925;45.666;18.994;2022-12-08T03:15:37;66.00;;;35.70;;
55025;SDS011;40925;45.666;18.994;2022-12-08T03:18:05;59.33;;;33.42;;
55025;SDS011;40925;45.666;18.994;2022-12-08T03:20:35;62.78;;;34.15;;
55025;SDS011;40925;45.666;18.994;2022-12-08T03:23:03;58.75;;;32.88;;
55025;SDS011;40925;45.666;18.994;2022-12-08T03:25:32;59.80;;;33.33;;
55025;SDS011;40925;45.666;18.994;2022-12-08T03:28:05;60.35;;;33.13;;
55025;SDS011;40925;45.666;18.994;2022-12-08T03:30:31;59.90;;;34.33;;
55025;SDS011;40925;45.666;18.994;2022-12-08T03:35:36;55.92;;;31.55;;
55025;SDS011;40925;45.666;18.994;2022-12-08T03:38:12;56.58;;;31.88;;
55025;SDS011;40925;45.666;18.994;2022-12-08T03:40:40;55.25;;;30.65;;
55025;SDS011;40925;45.666;18.994;2022-12-08T03:43:06;57.42;;;31.77;;
55025;SDS011;40925;45.666;18.994;2022-12-08T03:45:32;57.35;;;32.78;;
55025;SDS011;40925;45.666;18.994;2022-12-08T03:47:58;60.10;;;32.75;;
55025;SDS011;40925;45.666;18.994;2022-12-08T03:50:24;61.28;;;34.28;;
55025;SDS011;40925;45.666;18.994;2022-12-08T03:52:50;59.58;;;32.85;;
55025;SDS011;40925;45.666;18.994;2022-12-08T03:55:16;58.25;;;32.40;;
55025;SDS011;40925;45.666;18.994;2022-12-08T03:57:42;57.03;;;31.38;;
55025;SDS011;40925;45.666;18.994;2022-12-08T04:00:10;52.45;;;29.65;;
55025;SDS011;40925;45.666;18.994;2022-12-08T04:02:38;56.13;;;31.40;;
55025;SDS011;40925;45.666;18.994;2022-12-08T04:05:04;60.13;;;32.05;;
55025;SDS011;40925;45.666;18.994;2022-12-08T04:07:30;57.83;;;31.75;;
55025;SDS011;40925;45.666;18.994;2022-12-08T04:09:55;53.97;;;30.70;;
55025;SDS011;40925;45.666;18.994;2022-12-08T04:12:21;55.13;;;30.13;;
55025;SDS011;40925;45.666;18.994;2022-12-08T04:14:47;52.25;;;30.60;;
55025;SDS011;40925;45.666;18.994;2022-12-08T04:17:12;53.60;;;30.67;;
55025;SDS011;40925;45.666;18.994;2022-12-08T04:19:38;51.25;;;28.52;;
55025;SDS011;40925;45.666;18.994;2022-12-08T04:22:05;50.92;;;28.25;;
55025;SDS011;40925;45.666;18.994;2022-12-08T04:24:31;51.35;;;27.65;;
55025;SDS011;40925;45.666;18.994;2022-12-08T04:26:57;49.30;;;27.63;;
55025;SDS011;40925;45.666;18.994;2022-12-08T04:29:23;51.67;;;27.08;;
55025;SDS011;40925;45.666;18.994;2022-12-08T04:31:48;47.88;;;26.73;;
55025;SDS011;40925;45.666;18.994;2022-12-08T04:34:14;46.60;;;26.33;;
55025;SDS011;40925;45.666;18.994;2022-12-08T04:36:40;46.40;;;26.40;;
55025;SDS011;40925;45.666;18.994;2022-12-08T04:39:05;50.47;;;28.83;;
55025;SDS011;40925;45.666;18.994;2022-12-08T04:41:31;51.60;;;29.08;;
55025;SDS011;40925;45.666;18.994;2022-12-08T04:43:57;52.45;;;29.40;;
55025;SDS011;40925;45.666;18.994;2022-12-08T04:46:22;51.25;;;29.40;;
55025;SDS011;40925;45.666;18.994;2022-12-08T04:48:48;54.53;;;29.95;;
55025;SDS011;40925;45.666;18.994;2022-12-08T04:51:15;54.13;;;30.60;;
55025;SDS011;40925;45.666;18.994;2022-12-08T04:53:42;57.33;;;30.83;;
55025;SDS011;40925;45.666;18.994;2022-12-08T04:56:12;54.78;;;30.73;;
55025;SDS011;40925;45.666;18.994;2022-12-08T04:58:42;58.65;;;30.73;;
55025;SDS011;40925;45.666;18.994;2022-12-08T05:01:08;55.72;;;30.40;;
55025;SDS011;40925;45.666;18.994;2022-12-08T05:03:34;56.15;;;31.13;;
55025;SDS011;40925;45.666;18.994;2022-12-08T05:06:00;54.33;;;30.58;;
55025;SDS011;40925;45.666;18.994;2022-12-08T05:08:26;53.30;;;29.90;;
55025;SDS011;40925;45.666;18.994;2022-12-08T05:10:52;55.55;;;30.45;;
55025;SDS011;40925;45.666;18.994;2022-12-08T05:13:18;55.53;;;30.38;;
55025;SDS011;40925;45.666;18.994;2022-12-08T05:15:43;56.58;;;30.95;;
55025;SDS011;40925;45.666;18.994;2022-12-08T05:18:09;52.10;;;30.00;;
55025;SDS011;40925;45.666;18.994;2022-12-08T05:20:35;55.60;;;30.83;;
55025;SDS011;40925;45.666;18.994;2022-12-08T05:23:00;57.70;;;31.02;;
55025;SDS011;40925;45.666;18.994;2022-12-08T05:25:26;52.28;;;29.90;;
55025;SDS011;40925;45.666;18.994;2022-12-08T05:27:52;53.95;;;30.27;;
55025;SDS011;40925;45.666;18.994;2022-12-08T05:30:18;55.38;;;30.08;;
55025;SDS011;40925;45.666;18.994;2022-12-08T05:32:44;53.25;;;29.83;;
55025;SDS011;40925;45.666;18.994;2022-12-08T05:35:09;55.47;;;30.92;;
55025;SDS011;40925;45.666;18.994;2022-12-08T05:37:35;57.30;;;31.50;;
55025;SDS011;40925;45.666;18.994;2022-12-08T05:40:01;56.03;;;30.45;;
55025;SDS011;40925;45.666;18.994;2022-12-08T05:42:27;54.60;;;30.75;;
55025;SDS011;40925;45.666;18.994;2022-12-08T05:44:52;55.28;;;30.30;;
55025;SDS011;40925;45.666;18.994;2022-12-08T05:47:18;53.75;;;29.52;;
55025;SDS011;40925;45.666;18.994;2022-12-08T05:49:44;53.22;;;29.83;;
55025;SDS011;40925;45.666;18.994;2022-12-08T05:52:10;52.20;;;29.33;;
55025;SDS011;40925;45.666;18.994;2022-12-08T05:54:36;54.25;;;29.88;;
55025;SDS011;40925;45.666;18.994;2022-12-08T05:57:02;52.42;;;29.30;;
55025;SDS011;40925;45.666;18.994;2022-12-08T05:59:28;52.97;;;29.13;;
55025;SDS011;40925;45.666;18.994;2022-12-08T06:01:53;50.83;;;28.40;;
55025;SDS011;40925;45.666;18.994;2022-12-08T06:04:19;55.40;;;29.77;;
55025;SDS011;40925;45.666;18.994;2022-12-08T06:06:46;52.53;;;29.80;;
55025;SDS011;40925;45.666;18.994;2022-12-08T06:09:11;53.78;;;30.02;;
55025;SDS011;40925;45.666;18.994;2022-12-08T06:11:37;55.25;;;30.20;;
55025;SDS011;40925;45.666;18.994;2022-12-08T06:14:03;56.30;;;30.13;;
55025;SDS011;40925;45.666;18.994;2022-12-08T06:16:29;55.22;;;30.20;;
55025;SDS011;40925;45.666;18.994;2022-12-08T06:18:55;53.83;;;30.13;;
55025;SDS011;40925;45.666;18.994;2022-12-08T06:21:21;57.22;;;30.52;;
55025;SDS011;40925;45.666;18.994;2022-12-08T06:23:47;57.58;;;30.65;;
55025;SDS011;40925;45.666;18.994;2022-12-08T06:26:17;57.53;;;30.38;;
55025;SDS011;40925;45.666;18.994;2022-12-08T06:28:43;53.83;;;29.20;;
55025;SDS011;40925;45.666;18.994;2022-12-08T06:31:11;55.97;;;29.85;;
55025;SDS011;40925;45.666;18.994;2022-12-08T06:33:42;56.17;;;30.35;;
55025;SDS011;40925;45.666;18.994;2022-12-08T06:36:09;55.38;;;30.30;;
55025;SDS011;40925;45.666;18.994;2022-12-08T06:38:36;64.40;;;31.67;;
55025;SDS011;40925;45.666;18.994;2022-12-08T06:41:02;56.60;;;31.10;;
55025;SDS011;40925;45.666;18.994;2022-12-08T06:43:29;57.40;;;30.52;;
55025;SDS011;40925;45.666;18.994;2022-12-08T06:45:56;58.55;;;30.35;;
55025;SDS011;40925;45.666;18.994;2022-12-08T06:48:21;54.28;;;30.27;;
55025;SDS011;40925;45.666;18.994;2022-12-08T06:50:47;58.30;;;31.00;;
55025;SDS011;40925;45.666;18.994;2022-12-08T06:53:13;55.10;;;29.40;;
55025;SDS011;40925;45.666;18.994;2022-12-08T06:55:46;55.53;;;29.58;;
55025;SDS011;40925;45.666;18.994;2022-12-08T06:58:16;53.30;;;28.85;;
55025;SDS011;40925;45.666;18.994;2022-12-08T07:00:42;55.53;;;30.63;;
55025;SDS011;40925;45.666;18.994;2022-12-08T07:03:08;61.80;;;33.20;;
55025;SDS011;40925;45.666;18.994;2022-12-08T07:05:35;57.90;;;32.05;;
55025;SDS011;40925;45.666;18.994;2022-12-08T07:08:01;64.60;;;35.47;;
55025;SDS011;40925;45.666;18.994;2022-12-08T07:10:28;63.95;;;37.30;;
55025;SDS011;40925;45.666;18.994;2022-12-08T07:12:54;62.55;;;34.80;;
55025;SDS011;40925;45.666;18.994;2022-12-08T07:15:19;65.80;;;37.05;;
55025;SDS011;40925;45.666;18.994;2022-12-08T07:17:46;62.65;;;35.33;;
55025;SDS011;40925;45.666;18.994;2022-12-08T07:20:12;60.88;;;33.85;;
55025;SDS011;40925;45.666;18.994;2022-12-08T07:22:38;53.63;;;31.48;;
55025;SDS011;40925;45.666;18.994;2022-12-08T07:25:04;56.97;;;32.40;;
55025;SDS011;40925;45.666;18.994;2022-12-08T07:27:30;55.13;;;31.13;;
55025;SDS011;40925;45.666;18.994;2022-12-08T07:29:55;60.97;;;33.17;;
55025;SDS011;40925;45.666;18.994;2022-12-08T07:32:21;57.30;;;32.80;;
55025;SDS011;40925;45.666;18.994;2022-12-08T07:34:47;54.70;;;30.08;;
55025;SDS011;40925;45.666;18.994;2022-12-08T07:37:13;57.13;;;30.73;;
55025;SDS011;40925;45.666;18.994;2022-12-08T07:39:39;54.28;;;30.42;;
55025;SDS011;40925;45.666;18.994;2022-12-08T07:42:04;59.08;;;32.67;;
55025;SDS011;40925;45.666;18.994;2022-12-08T07:44:30;59.60;;;32.63;;
55025;SDS011;40925;45.666;18.994;2022-12-08T07:46:55;55.33;;;31.13;;
55025;SDS011;40925;45.666;18.994;2022-12-08T07:49:21;62.75;;;34.25;;
55025;SDS011;40925;45.666;18.994;2022-12-08T07:51:47;50.00;;;28.35;;
55025;SDS011;40925;45.666;18.994;2022-12-08T07:54:13;55.45;;;30.60;;
55025;SDS011;40925;45.666;18.994;2022-12-08T07:56:39;57.78;;;31.63;;
55025;SDS011;40925;45.666;18.994;2022-12-08T07:59:05;58.15;;;31.98;;
55025;SDS011;40925;45.666;18.994;2022-12-08T08:01:31;52.28;;;29.55;;
55025;SDS011;40925;45.666;18.994;2022-12-08T08:03:58;48.78;;;28.20;;
55025;SDS011;40925;45.666;18.994;2022-12-08T08:06:26;46.97;;;26.02;;
55025;SDS011;40925;45.666;18.994;2022-12-08T08:08:52;46.70;;;27.80;;
55025;SDS011;40925;45.666;18.994;2022-12-08T08:11:18;47.50;;;26.90;;
55025;SDS011;40925;45.666;18.994;2022-12-08T08:13:44;48.75;;;29.33;;
55025;SDS011;40925;45.666;18.994;2022-12-08T08:16:10;50.08;;;28.65;;
55025;SDS011;40925;45.666;18.994;2022-12-08T08:18:37;48.63;;;27.08;;
55025;SDS011;40925;45.666;18.994;2022-12-08T08:21:04;44.88;;;26.15;;
55025;SDS011;40925;45.666;18.994;2022-12-08T08:23:30;43.55;;;25.58;;
55025;SDS011;40925;45.666;18.994;2022-12-08T08:25:59;45.33;;;25.65;;
55025;SDS011;40925;45.666;18.994;2022-12-08T08:28:26;46.03;;;26.40;;
55025;SDS011;40925;45.666;18.994;2022-12-08T08:30:52;47.85;;;26.13;;
55025;SDS011;40925;45.666;18.994;2022-12-08T08:33:18;46.25;;;26.45;;
55025;SDS011;40925;45.666;18.994;2022-12-08T08:35:44;57.00;;;30.48;;
55025;SDS011;40925;45.666;18.994;2022-12-08T08:38:10;44.15;;;25.92;;
55025;SDS011;40925;45.666;18.994;2022-12-08T08:40:35;45.70;;;25.90;;
55025;SDS011;40925;45.666;18.994;2022-12-08T08:43:01;40.05;;;23.00;;
55025;SDS011;40925;45.666;18.994;2022-12-08T08:45:27;40.17;;;24.45;;
55025;SDS011;40925;45.666;18.994;2022-12-08T08:47:53;37.20;;;22.80;;
55025;SDS011;40925;45.666;18.994;2022-12-08T08:50:19;38.90;;;23.25;;
55025;SDS011;40925;45.666;18.994;2022-12-08T08:52:44;36.97;;;22.08;;
55025;SDS011;40925;45.666;18.994;2022-12-08T08:55:10;37.13;;;21.90;;
55025;SDS011;40925;45.666;18.994;2022-12-08T08:57:36;37.13;;;21.38;;
55025;SDS011;40925;45.666;18.994;2022-12-08T09:00:02;35.17;;;20.85;;
55025;SDS011;40925;45.666;18.994;2022-12-08T09:02:29;32.25;;;19.77;;
55025;SDS011;40925;45.666;18.994;2022-12-08T09:04:55;33.05;;;19.45;;
55025;SDS011;40925;45.666;18.994;2022-12-08T09:07:21;31.20;;;18.35;;
55025;SDS011;40925;45.666;18.994;2022-12-08T09:09:46;30.73;;;17.92;;
55025;SDS011;40925;45.666;18.994;2022-12-08T09:12:12;30.95;;;18.77;;
55025;SDS011;40925;45.666;18.994;2022-12-08T09:14:38;28.30;;;17.23;;
55025;SDS011;40925;45.666;18.994;2022-12-08T09:17:04;31.27;;;18.17;;
55025;SDS011;40925;45.666;18.994;2022-12-08T09:19:31;29.13;;;16.58;;
55025;SDS011;40925;45.666;18.994;2022-12-08T09:21:57;28.15;;;17.42;;
55025;SDS011;40925;45.666;18.994;2022-12-08T09:24:22;27.95;;;14.80;;
55025;SDS011;40925;45.666;18.994;2022-12-08T09:26:48;23.05;;;13.65;;
55025;SDS011;40925;45.666;18.994;2022-12-08T09:29:14;21.85;;;13.07;;
55025;SDS011;40925;45.666;18.994;2022-12-08T09:31:41;23.77;;;13.85;;
55025;SDS011;40925;45.666;18.994;2022-12-08T09:34:07;23.23;;;12.95;;
55025;SDS011;40925;45.666;18.994;2022-12-08T09:36:35;22.52;;;12.90;;
55025;SDS011;40925;45.666;18.994;2022-12-08T09:39:00;20.52;;;12.75;;
55025;SDS011;40925;45.666;18.994;2022-12-08T09:41:37;16.77;;;11.05;;
55025;SDS011;40925;45.666;18.994;2022-12-08T09:46:43;19.50;;;11.63;;
55025;SDS011;40925;45.666;18.994;2022-12-08T09:49:16;19.05;;;11.23;;
55025;SDS011;40925;45.666;18.994;2022-12-08T09:56:48;35.03;;;20.70;;
55025;SDS011;40925;45.666;18.994;2022-12-08T09:59:37;25.80;;;15.68;;
55025;SDS011;40925;45.666;18.994;2022-12-08T10:02:12;24.27;;;15.50;;
55025;SDS011;40925;45.666;18.994;2022-12-08T10:04:47;35.28;;;19.75;;
55025;SDS011;40925;45.666;18.994;2022-12-08T10:12:50;32.22;;;22.40;;
55025;SDS011;40925;45.666;18.994;2022-12-08T10:18:12;28.85;;;17.42;;
55025;SDS011;40925;45.666;18.994;2022-12-08T10:20:51;29.15;;;15.82;;
55025;SDS011;40925;45.666;18.994;2022-12-08T10:23:27;32.97;;;18.35;;
55025;SDS011;40925;45.666;18.994;2022-12-08T10:26:10;28.98;;;16.48;;
55025;SDS011;40925;45.666;18.994;2022-12-08T10:28:38;25.63;;;15.20;;
55025;SDS011;40925;45.666;18.994;2022-12-08T10:31:04;22.13;;;14.65;;
55025;SDS011;40925;45.666;18.994;2022-12-08T10:33:30;21.00;;;14.40;;
55025;SDS011;40925;45.666;18.994;2022-12-08T10:35:57;22.08;;;12.85;;
55025;SDS011;40925;45.666;18.994;2022-12-08T10:40:53;20.45;;;12.40;;
55025;SDS011;40925;45.666;18.994;2022-12-08T10:43:27;20.20;;;12.82;;
55025;SDS011;40925;45.666;18.994;2022-12-08T10:45:53;25.23;;;14.20;;
55025;SDS011;40925;45.666;18.994;2022-12-08T10:53:26;22.77;;;13.80;;
55025;SDS011;40925;45.666;18.994;2022-12-08T11:00:57;22.33;;;13.90;;
55025;SDS011;40925;45.666;18.994;2022-12-08T11:03:58;21.83;;;13.60;;
55025;SDS011;40925;45.666;18.994;2022-12-08T11:06:33;30.20;;;17.55;;
55025;SDS011;40925;45.666;18.994;2022-12-08T11:12:12;29.05;;;18.40;;
55025;SDS011;40925;45.666;18.994;2022-12-08T11:19:45;30.98;;;17.95;;
55025;SDS011;40925;45.666;18.994;2022-12-08T11:24:58;20.10;;;11.45;;
55025;SDS011;40925;45.666;18.994;2022-12-08T11:27:35;22.45;;;11.60;;
55025;SDS011;40925;45.666;18.994;2022-12-08T11:30:05;18.08;;;10.43;;
55025;SDS011;40925;45.666;18.994;2022-12-08T11:32:43;18.42;;;11.00;;
55025;SDS011;40925;45.666;18.994;2022-12-08T11:35:29;19.42;;;10.63;;
55025;SDS011;40925;45.666;18.994;2022-12-08T11:38:03;16.67;;;10.50;;
55025;SDS011;40925;45.666;18.994;2022-12-08T11:40:36;20.00;;;11.93;;
55025;SDS011;40925;45.666;18.994;2022-12-08T11:45:51;14.63;;;9.43;;
55025;SDS011;40925;45.666;18.994;2022-12-08T11:48:39;17.00;;;10.38;;
55025;SDS011;40925;45.666;18.994;2022-12-08T11:56:37;19.60;;;11.77;;
55025;SDS011;40925;45.666;18.994;2022-12-08T11:59:16;17.30;;;11.35;;
55025;SDS011;40925;45.666;18.994;2022-12-08T12:01:49;20.80;;;11.98;;
55025;SDS011;40925;45.666;18.994;2022-12-08T12:12:38;21.38;;;12.73;;
55025;SDS011;40925;45.666;18.994;2022-12-08T12:23:41;196.55;;;62.75;;
55025;SDS011;40925;45.666;18.994;2022-12-08T12:26:19;362.88;;;90.18;;
55025;SDS011;40925;45.666;18.994;2022-12-08T12:28:52;131.27;;;42.15;;
55025;SDS011;40925;45.666;18.994;2022-12-08T12:34:02;45.50;;;20.38;;
55025;SDS011;40925;45.666;18.994;2022-12-08T12:36:31;112.18;;;38.33;;
55025;SDS011;40925;45.666;18.994;2022-12-08T12:39:12;146.32;;;47.63;;
55025;SDS011;40925;45.666;18.994;2022-12-08T12:41:46;99.35;;;33.05;;
55025;SDS011;40925;45.666;18.994;2022-12-08T12:57:14;366.77;;;84.60;;
